Aeroporto :
LOGIN :

Iscrizione | Disclaimer

   EN    FR    IT 

 










Sommario :    VFR   VFR Marginale   IFR   IFR Intensivo   IFR Molto Intensivo
Visibilità : 
Base nubi : 
>= 8 km
>= 3000ft
5 / 8 km
1000 / 3000 ft
1500m / 5 km
500 / 1000 ft
800 / 1500m
200 / 500 ft
< 800m
< 200 ft
Simboli :   Temporali  Nebbia  Neve Forte  Precipitazioni Forti  Vento > 20 kt
SIGMETs :   Varie  Temporali  Ghiacco  Turbolenza  Onda orograficha  Ceneri Vulcaniche






- Altitudine del aeroporto : 302 ft
- Codice IATA : CGN


EDDK - Cologne Bonn

ULTIMO METAR :
  • 030120Z 00000KT CAVOK 16/10 Q1009 NOSIG

METARs OBSOLETI :
  • 030050Z VRB02KT CAVOK 16/10 Q1010 NOSIG
  • 030020Z VRB02KT CAVOK 17/10 Q1010 NOSIG
  • 022350Z VRB02KT CAVOK 16/10 Q1010 NOSIG
  • 022320Z VRB02KT CAVOK 16/10 Q1010 NOSIG
  • 022250Z VRB02KT CAVOK 17/10 Q1010 NOSIG

TAF TAF EDDK
Valido dal 03 a 00 ore il 04 a 06 ore UTC


022300Z 0300/0406 VRB03KT CAVOK
BECMG 0308/0311 29006KT
TEMPO 0311/0324 VRB03KT
PROB30
TEMPO 0318/0324 27015G30KT TSRA SCT030CB
PROB30
TEMPO 0403/0406 4500 RA BKN009



MetMap, La meteo Aeronautica in un colpo d'occhio ! - Copyright ORBIFLY Dicembre 2007 - Disclaimer

ORBIFLY MET'MAP TEAM :

Programmazione e sviluppo : Alexandra Zaïnal
Concezione : Baudouin d'Aumeries
Aiuto per la programmazione : Marc-Olivier Méhu
Supporto tecnico e logistico : Manuel Goepfert
Aiuto per la traduzione : Arnaldo La Scala

Contatto : metmap@orbifly.com




FONTI E CREDITI :

   NOAA